createdAt,value
2018-09-03T00:02:28.687Z,101265.33
2018-09-03T00:04:56.901Z,101262.87
2018-09-03T00:07:25.105Z,101266.56
2018-09-03T00:09:53.322Z,101254.47
2018-09-03T00:12:21.525Z,101255.98
2018-09-03T00:14:49.722Z,101249.11
2018-09-03T00:17:17.968Z,101242.06
2018-09-03T00:19:46.171Z,101239.76
2018-09-03T00:22:14.382Z,101234.64
2018-09-03T00:24:42.591Z,101228.89
2018-09-03T00:27:10.810Z,101226.06
2018-09-03T00:29:39.014Z,101220.97
2018-09-03T00:32:12.821Z,101215.31
2018-09-03T00:35:46.175Z,101211.44
2018-09-03T00:38:19.548Z,101206.02
2018-09-03T00:40:53.139Z,101208.59
2018-09-03T00:43:26.577Z,101199.73
2018-09-03T00:46:00.166Z,101202.45
2018-09-03T00:48:28.378Z,101197.64
2018-09-03T00:50:56.583Z,101189.30
2018-09-03T00:53:25.058Z,101197.70
2018-09-03T00:55:53.253Z,101196.05
2018-09-03T00:58:21.523Z,101197.70
2018-09-03T01:00:49.738Z,101191.20
2018-09-03T01:03:17.941Z,101194.64
2018-09-03T01:05:46.149Z,101185.77
2018-09-03T01:08:14.349Z,101184.95
2018-09-03T01:10:42.559Z,101194.67
2018-09-03T01:13:10.772Z,101190.90
2018-09-03T01:15:38.985Z,101194.77
2018-09-03T01:18:07.193Z,101188.49
2018-09-03T01:20:35.404Z,101200.26
2018-09-03T01:23:03.605Z,101204.57
2018-09-03T01:25:31.815Z,101196.34
2018-09-03T01:28:00.021Z,101196.49
2018-09-03T01:30:28.221Z,101199.47
2018-09-03T01:32:56.430Z,101202.02
2018-09-03T01:35:24.629Z,101202.91
2018-09-03T01:37:52.837Z,101201.23
2018-09-03T01:40:21.058Z,101208.94
2018-09-03T01:42:49.275Z,101214.25
2018-09-03T01:45:17.489Z,101223.47
2018-09-03T01:47:45.694Z,101235.33
2018-09-03T01:50:13.900Z,101236.72
2018-09-03T01:52:42.089Z,101244.69
2018-09-03T01:55:10.286Z,101254.51
2018-09-03T01:57:38.498Z,101257.44
2018-09-03T02:00:06.842Z,101254.31
2018-09-03T02:02:35.045Z,101251.68
2018-09-03T02:05:03.293Z,101251.61
2018-09-03T02:07:31.525Z,101246.42
2018-09-03T02:09:59.722Z,101239.27
2018-09-03T02:12:27.930Z,101236.13
2018-09-03T02:14:56.138Z,101231.01
2018-09-03T02:17:24.365Z,101226.84
2018-09-03T02:19:52.574Z,101229.91
2018-09-03T02:22:20.777Z,101234.16
2018-09-03T02:24:48.987Z,101230.91
2018-09-03T02:27:17.181Z,101234.70
2018-09-03T02:29:45.385Z,101246.19
2018-09-03T02:32:13.589Z,101236.91
2018-09-03T02:34:41.798Z,101238.12
2018-09-03T02:37:10.010Z,101233.17
2018-09-03T02:39:38.214Z,101224.54
2018-09-03T02:42:06.438Z,101221.33
2018-09-03T02:44:34.634Z,101209.38
2018-09-03T02:47:03.075Z,101201.39
2018-09-03T02:49:31.278Z,101202.69
2018-09-03T02:51:59.493Z,101206.87
2018-09-03T02:54:27.697Z,101209.52
2018-09-03T02:56:55.918Z,101211.79
2018-09-03T02:59:24.131Z,101207.25
2018-09-03T03:01:52.346Z,101215.34
2018-09-03T03:04:20.557Z,101212.50
2018-09-03T03:06:48.766Z,101213.61
2018-09-03T03:09:16.966Z,101211.68
2018-09-03T03:11:45.282Z,101204.13
2018-09-03T03:14:13.403Z,101204.69
2018-09-03T03:16:41.605Z,101199.20
2018-09-03T03:19:09.838Z,101198.61
2018-09-03T03:21:38.054Z,101193.34
2018-09-03T03:24:06.320Z,101190.06
2018-09-03T03:26:34.517Z,101190.67
2018-09-03T03:29:02.724Z,101189.81
2018-09-03T03:31:30.918Z,101182.36
2018-09-03T03:33:59.155Z,101187.01
2018-09-03T03:36:27.359Z,101185.50
2018-09-03T03:38:55.657Z,101171.02
2018-09-03T03:41:23.865Z,101166.78
2018-09-03T03:43:52.115Z,101162.98
2018-09-03T03:46:20.317Z,101161.10
2018-09-03T03:48:48.562Z,101165.97
2018-09-03T03:51:17.182Z,101163.28
2018-09-03T03:53:45.378Z,101153.87
2018-09-03T03:56:13.594Z,101153.81
2018-09-03T03:58:41.841Z,101159.61
2018-09-03T04:01:10.059Z,101156.49
2018-09-03T04:03:38.319Z,101161.06
2018-09-03T04:06:06.630Z,101158.27
2018-09-03T04:08:34.833Z,101167.05
2018-09-03T04:11:03.054Z,101161.97
2018-09-03T04:13:31.276Z,101154.05
2018-09-03T04:15:59.499Z,101153.67
2018-09-03T04:18:27.690Z,101146.39
2018-09-03T04:20:56.257Z,101131.85
2018-09-03T04:23:24.583Z,101124.76
2018-09-03T04:25:52.729Z,101135.43
2018-09-03T04:28:20.947Z,101137.67
2018-09-03T04:30:49.186Z,101147.39
2018-09-03T04:33:17.390Z,101143.38
2018-09-03T04:35:45.625Z,101135.92
2018-09-03T04:38:13.842Z,101136.63
2018-09-03T04:40:42.065Z,101146.25
2018-09-03T04:43:10.282Z,101149.03
2018-09-03T04:45:38.549Z,101147.38
2018-09-03T04:48:06.889Z,101149.70
2018-09-03T04:50:34.982Z,101140.42
2018-09-03T04:53:03.226Z,101147.41
2018-09-03T04:55:31.430Z,101147.78
2018-09-03T04:57:59.654Z,101142.66
2018-09-03T05:00:27.854Z,101147.84
2018-09-03T05:02:56.073Z,101135.43
2018-09-03T05:05:24.557Z,101135.51
2018-09-03T05:07:52.776Z,101138.20
2018-09-03T05:10:21.085Z,101143.13
2018-09-03T05:12:49.908Z,101146.60
2018-09-03T05:15:18.131Z,101146.55
2018-09-03T05:17:47.386Z,101147.26
2018-09-03T05:20:15.644Z,101148.23
2018-09-03T05:22:43.922Z,101153.50
2018-09-03T05:25:12.151Z,101153.22
2018-09-03T05:27:40.392Z,101154.06
2018-09-03T05:30:09.781Z,101151.23
2018-09-03T05:32:38.349Z,101152.30
2018-09-03T05:35:07.683Z,101138.14
2018-09-03T05:37:35.893Z,101122.28
2018-09-03T05:40:04.185Z,101124.73
2018-09-03T05:42:33.530Z,101127.52
2018-09-03T05:45:02.833Z,101132.37
2018-09-03T05:47:31.101Z,101134.62
2018-09-03T05:49:59.309Z,101146.00
2018-09-03T05:52:27.606Z,101143.23
2018-09-03T05:54:56.905Z,101136.96
2018-09-03T05:57:25.185Z,101138.83
2018-09-03T05:59:53.483Z,101144.00
2018-09-03T06:02:21.831Z,101135.18
2018-09-03T06:04:50.186Z,101141.48
2018-09-03T06:07:18.533Z,101134.48
2018-09-03T06:09:46.753Z,101134.52
2018-09-03T06:12:15.002Z,101140.84
2018-09-03T06:14:44.230Z,101136.14
2018-09-03T06:17:13.463Z,101122.69
2018-09-03T06:19:41.662Z,101125.91
2018-09-03T06:22:10.294Z,101127.22
2018-09-03T06:24:38.854Z,101131.89
2018-09-03T06:27:07.099Z,101123.28
2018-09-03T06:29:36.333Z,101128.36
2018-09-03T06:32:04.549Z,101130.11
2018-09-03T06:34:32.794Z,101133.88
2018-09-03T06:37:01.158Z,101132.93
2018-09-03T06:39:29.379Z,101134.52
2018-09-03T06:41:57.586Z,101139.70
2018-09-03T06:44:25.806Z,101136.18
2018-09-03T06:46:54.034Z,101124.33
2018-09-03T06:49:22.342Z,101124.22
2018-09-03T06:51:50.537Z,101121.70
2018-09-03T06:54:18.817Z,101129.37
2018-09-03T06:56:47.038Z,101127.88
2018-09-03T06:59:15.261Z,101124.58
2018-09-03T07:01:43.462Z,101126.30
2018-09-03T07:04:11.702Z,101124.67
2018-09-03T07:06:39.914Z,101123.77
2018-09-03T07:09:09.324Z,101121.21
2018-09-03T07:11:37.522Z,101121.92
2018-09-03T07:14:05.890Z,101121.03
2018-09-03T07:16:34.101Z,101130.45
2018-09-03T07:19:02.358Z,101126.36
2018-09-03T07:21:30.527Z,101123.01
2018-09-03T07:23:58.758Z,101116.18
2018-09-03T07:26:26.986Z,101117.22
2018-09-03T07:28:55.228Z,101112.20
2018-09-03T07:31:23.409Z,101114.41
2018-09-03T07:33:51.630Z,101115.02
2018-09-03T07:36:19.838Z,101115.58
2018-09-03T07:38:48.042Z,101115.86
2018-09-03T07:41:16.300Z,101115.08
2018-09-03T07:43:44.530Z,101118.28
2018-09-03T07:46:12.742Z,101115.77
2018-09-03T07:48:40.955Z,101107.89
2018-09-03T07:51:09.263Z,101099.08
2018-09-03T07:53:37.382Z,101093.25
2018-09-03T07:56:05.654Z,101089.45
2018-09-03T07:58:33.873Z,101101.37
2018-09-03T08:01:02.102Z,101096.02
2018-09-03T08:03:30.293Z,101100.12
2018-09-03T08:05:58.502Z,101100.36
2018-09-03T08:08:26.705Z,101102.83
2018-09-03T08:10:54.920Z,101104.33
2018-09-03T08:13:28.481Z,101111.50
2018-09-03T08:15:56.695Z,101117.12
2018-09-03T08:18:24.910Z,101108.75
2018-09-03T08:20:53.130Z,101113.52
2018-09-03T08:23:21.334Z,101110.52
2018-09-03T08:25:49.543Z,101112.00
2018-09-03T08:28:17.773Z,101113.55
2018-09-03T08:30:45.989Z,101117.69
2018-09-03T08:33:14.220Z,101106.38
2018-09-03T08:35:42.451Z,101113.06
2018-09-03T08:38:10.717Z,101104.55
2018-09-03T08:40:38.934Z,101104.69
2018-09-03T08:43:07.149Z,101097.78
2018-09-03T08:45:35.364Z,101096.77
2018-09-03T08:48:03.730Z,101104.25
2018-09-03T08:50:31.930Z,101105.67
2018-09-03T08:53:00.214Z,101108.05
2018-09-03T08:55:28.401Z,101102.89
2018-09-03T08:57:56.618Z,101109.02
2018-09-03T09:00:25.106Z,101111.89
2018-09-03T09:02:53.326Z,101111.17
2018-09-03T09:05:21.542Z,101120.13
2018-09-03T09:07:49.758Z,101119.03
2018-09-03T09:10:17.978Z,101117.86
2018-09-03T09:12:46.194Z,101122.75
2018-09-03T09:15:14.405Z,101123.02
2018-09-03T09:17:42.690Z,101110.59
2018-09-03T09:20:10.840Z,101112.49
2018-09-03T09:22:39.059Z,101104.70
2018-09-03T09:25:07.313Z,101097.31
2018-09-03T09:27:35.499Z,101093.70
2018-09-03T09:30:04.241Z,101087.19
2018-09-03T09:32:32.446Z,101092.38
2018-09-03T09:35:06.175Z,101092.58
2018-09-03T09:37:34.350Z,101090.74
2018-09-03T09:40:02.586Z,101084.27
2018-09-03T09:42:30.791Z,101086.87
2018-09-03T09:44:59.046Z,101077.16
2018-09-03T09:47:27.333Z,101080.27
2018-09-03T09:49:55.566Z,101073.73
2018-09-03T09:52:23.774Z,101075.66
2018-09-03T09:54:52.061Z,101072.56
2018-09-03T09:57:20.241Z,101065.82
2018-09-03T09:59:48.478Z,101066.57
2018-09-03T10:02:16.714Z,101067.61
2018-09-03T10:04:44.934Z,101069.46
2018-09-03T10:07:13.153Z,101071.22
2018-09-03T10:09:41.363Z,101067.53
2018-09-03T10:12:09.595Z,101062.39
2018-09-03T10:14:37.820Z,101059.12
2018-09-03T10:17:06.045Z,101059.00
2018-09-03T10:19:34.236Z,101059.89
2018-09-03T10:22:02.485Z,101056.11
2018-09-03T10:24:30.702Z,101054.92
2018-09-03T10:26:58.908Z,101043.77
2018-09-03T10:29:27.122Z,101038.16
2018-09-03T10:31:55.332Z,101035.75
2018-09-03T10:34:23.553Z,101041.32
2018-09-03T10:36:51.766Z,101048.83
2018-09-03T10:39:20.034Z,101050.91
2018-09-03T10:41:48.238Z,101043.10
2018-09-03T10:44:16.453Z,101045.11
2018-09-03T10:46:45.403Z,101034.19
2018-09-03T10:49:13.627Z,101032.12
2018-09-03T10:51:41.832Z,101040.09
2018-09-03T10:54:10.045Z,101036.13
2018-09-03T10:56:38.266Z,101029.86
2018-09-03T10:59:06.612Z,101022.08
2018-09-03T11:01:34.814Z,101025.07
2018-09-03T11:04:03.045Z,101024.20
2018-09-03T11:06:31.395Z,101013.63
2018-09-03T11:08:59.635Z,101014.11
2018-09-03T11:11:27.837Z,101011.69
2018-09-03T11:13:56.054Z,101007.55
2018-09-03T11:16:24.354Z,101000.03
2018-09-03T11:18:52.650Z,101004.59
2018-09-03T11:21:20.960Z,100995.60
2018-09-03T11:23:49.115Z,100995.30
2018-09-03T11:26:17.318Z,100983.59
2018-09-03T11:28:45.604Z,100989.87
2018-09-03T11:31:13.778Z,100980.14
2018-09-03T11:33:41.973Z,100981.14
2018-09-03T11:36:10.187Z,100980.36
2018-09-03T11:38:38.414Z,100973.16
2018-09-03T11:41:06.662Z,100968.64
2018-09-03T11:43:34.866Z,100974.16
2018-09-03T11:46:03.169Z,100974.94
2018-09-03T11:48:31.373Z,100976.45
2018-09-03T11:50:59.606Z,100973.16
2018-09-03T11:53:27.809Z,100974.85
2018-09-03T11:55:56.028Z,100975.94
2018-09-03T11:58:24.270Z,100972.89
2018-09-03T12:00:56.760Z,100967.27
2018-09-03T12:03:24.978Z,100965.34
2018-09-03T12:05:53.198Z,100969.31
2018-09-03T12:08:21.451Z,100974.94
2018-09-03T12:10:49.662Z,100973.66
2018-09-03T12:13:17.872Z,100968.95
2018-09-03T12:16:20.294Z,100977.11
2018-09-03T12:18:48.566Z,100970.85
2018-09-03T12:21:17.107Z,100975.69
2018-09-03T12:23:45.436Z,100975.38
2018-09-03T12:26:13.666Z,100970.36
2018-09-03T12:28:41.887Z,100976.42
2018-09-03T12:31:10.130Z,100966.88
2018-09-03T12:33:38.350Z,100963.68
2018-09-03T12:36:06.638Z,100968.66
2018-09-03T12:38:35.190Z,100969.34
2018-09-03T12:41:03.567Z,100967.70
2018-09-03T12:43:31.822Z,100960.95
2018-09-03T12:46:01.250Z,100964.38
2018-09-03T12:48:30.273Z,100959.50
2018-09-03T12:50:58.961Z,100963.88
2018-09-03T12:53:28.402Z,100962.47
2018-09-03T12:55:56.616Z,100968.11
2018-09-03T12:58:24.934Z,100966.50
2018-09-03T13:00:53.230Z,100961.84
2018-09-03T13:03:21.423Z,100967.02
2018-09-03T13:05:49.811Z,100960.75
2018-09-03T13:08:18.058Z,100960.95
2018-09-03T13:10:46.358Z,100967.69
2018-09-03T13:13:14.639Z,100962.40
2018-09-03T13:15:42.871Z,100958.73
2018-09-03T13:18:11.084Z,100958.86
2018-09-03T13:20:39.293Z,100962.50
2018-09-03T13:23:07.598Z,100961.32
2018-09-03T13:25:35.814Z,100965.05
2018-09-03T13:28:04.030Z,100958.23
2018-09-03T13:30:32.346Z,100957.98
2018-09-03T13:33:00.597Z,100951.30
2018-09-03T13:35:28.877Z,100955.22
2018-09-03T13:37:57.097Z,100957.11
2018-09-03T13:40:25.338Z,100958.87
2018-09-03T13:42:53.578Z,100956.91
2018-09-03T13:45:21.789Z,100952.11
2018-09-03T13:47:50.030Z,100956.42
2018-09-03T13:50:18.266Z,100957.56
2018-09-03T13:52:46.474Z,100958.71
2018-09-03T13:55:14.750Z,100954.73
2018-09-03T13:57:42.998Z,100955.84
2018-09-03T14:00:12.205Z,100959.17
2018-09-03T14:02:40.481Z,100955.23
2018-09-03T14:05:08.747Z,100959.93
2018-09-03T14:07:36.984Z,100962.15
2018-09-03T14:10:05.373Z,100958.46
2018-09-03T14:12:33.526Z,100954.88
2018-09-03T14:15:01.783Z,100955.67
2018-09-03T14:17:30.054Z,100958.87
2018-09-03T14:19:58.835Z,100956.14
2018-09-03T14:22:26.989Z,100961.84
2018-09-03T14:24:55.315Z,100957.73
2018-09-03T14:27:23.533Z,100957.53
2018-09-03T14:29:51.840Z,100955.11
2018-09-03T14:32:20.072Z,100952.58
2018-09-03T14:34:48.315Z,100948.34
2018-09-03T14:37:16.573Z,100946.88
2018-09-03T14:39:44.793Z,100950.24
2018-09-03T14:42:13.009Z,100946.95
2018-09-03T14:44:41.216Z,100943.11
2018-09-03T14:47:09.575Z,100944.17
2018-09-03T14:49:37.831Z,100947.73
2018-09-03T14:52:06.082Z,100945.64
2018-09-03T14:54:36.410Z,100941.27
2018-09-03T14:57:04.686Z,100940.36
2018-09-03T14:59:32.915Z,100941.98
2018-09-03T15:02:01.195Z,100939.94
2018-09-03T15:04:29.449Z,100941.65
2018-09-03T15:06:57.666Z,100939.34
2018-09-03T15:09:25.916Z,100936.39
2018-09-03T15:11:54.138Z,100942.88
2018-09-03T15:14:22.369Z,100941.69
2018-09-03T15:16:50.593Z,100942.73
2018-09-03T15:19:18.817Z,100943.79
2018-09-03T15:21:47.044Z,100943.11
2018-09-03T15:24:15.273Z,100940.23
2018-09-03T15:26:43.640Z,100946.16
2018-09-03T15:29:11.733Z,100944.56
2018-09-03T15:31:39.940Z,100946.70
2018-09-03T15:34:08.149Z,100943.20
2018-09-03T15:36:36.460Z,100942.92
2018-09-03T15:39:08.632Z,100940.15
2018-09-03T15:41:36.894Z,100939.05
2018-09-03T15:44:05.359Z,100932.16
2018-09-03T15:46:33.722Z,100938.64
2018-09-03T15:49:02.055Z,100937.77
2018-09-03T15:51:30.259Z,100939.14
2018-09-03T15:53:58.565Z,100941.28
2018-09-03T15:56:26.785Z,100942.47
2018-09-03T15:58:55.030Z,100936.00
2018-09-03T16:01:23.298Z,100942.61
2018-09-03T16:03:51.518Z,100936.05
2018-09-03T16:06:19.820Z,100941.69
2018-09-03T16:08:49.117Z,100939.28
2018-09-03T16:11:17.412Z,100942.61
2018-09-03T16:13:45.798Z,100938.55
2018-09-03T16:16:14.050Z,100935.59
2018-09-03T16:18:42.255Z,100938.56
2018-09-03T16:21:10.459Z,100934.54
2018-09-03T16:23:38.767Z,100939.05
2018-09-03T16:26:07.013Z,100931.48
2018-09-03T16:28:35.227Z,100927.66
2018-09-03T16:31:03.451Z,100927.66
2018-09-03T16:33:31.694Z,100926.47
2018-09-03T16:36:00.035Z,100922.18
2018-09-03T16:38:28.185Z,100922.64
2018-09-03T16:40:56.406Z,100927.02
2018-09-03T16:43:24.614Z,100931.44
2018-09-03T16:45:53.058Z,100933.57
2018-09-03T16:48:21.277Z,100932.91
2018-09-03T16:50:49.501Z,100926.47
2018-09-03T16:53:17.737Z,100932.27
2018-09-03T16:55:45.951Z,100938.58
2018-09-03T16:58:14.194Z,100937.11
2018-09-03T17:00:42.427Z,100938.71
2018-09-03T17:03:10.679Z,100934.34
2018-09-03T17:05:38.953Z,100937.89
2018-09-03T17:08:07.368Z,100942.12
2018-09-03T17:10:35.485Z,100936.97
2018-09-03T17:13:03.711Z,100930.90
2018-09-03T17:15:31.935Z,100938.34
2018-09-03T17:18:00.580Z,100934.37
2018-09-03T17:20:28.870Z,100934.66
2018-09-03T17:22:57.030Z,100939.11
2018-09-03T17:25:25.234Z,100940.14
2018-09-03T17:27:53.481Z,100936.56
2018-09-03T17:30:21.802Z,100945.97
2018-09-03T17:32:50.030Z,100937.61
2018-09-03T17:35:18.252Z,100947.19
2018-09-03T17:37:46.463Z,100946.50
2018-09-03T17:40:14.785Z,100946.59
2018-09-03T17:42:43.090Z,100946.92
2018-09-03T17:45:11.429Z,100942.30
2018-09-03T17:47:40.213Z,100949.09
2018-09-03T17:50:08.510Z,100945.42
2018-09-03T17:52:36.718Z,100948.80
2018-09-03T17:55:04.974Z,100953.60
2018-09-03T17:57:33.194Z,100954.92
2018-09-03T18:00:01.454Z,100954.67
2018-09-03T18:02:29.668Z,100959.87
2018-09-03T18:04:58.085Z,100953.72
2018-09-03T18:07:26.385Z,100959.08
2018-09-03T18:09:54.701Z,100958.16
2018-09-03T18:12:22.914Z,100956.83
2018-09-03T18:14:51.133Z,100959.06
2018-09-03T18:17:19.328Z,100962.90
2018-09-03T18:19:47.556Z,100962.52
2018-09-03T18:22:15.762Z,100959.59
2018-09-03T18:24:43.996Z,100967.73
2018-09-03T18:27:12.279Z,100960.14
2018-09-03T18:29:40.544Z,100962.89
2018-09-03T18:32:08.773Z,100958.86
2018-09-03T18:34:37.003Z,100965.00
2018-09-03T18:37:05.484Z,100966.25
2018-09-03T18:39:33.803Z,100968.96
2018-09-03T18:42:02.166Z,100966.48
2018-09-03T18:44:30.350Z,100969.45
2018-09-03T18:46:58.598Z,100974.27
2018-09-03T18:49:26.800Z,100975.33
2018-09-03T18:51:55.015Z,100980.33
2018-09-03T18:54:23.285Z,100982.58
2018-09-03T18:56:51.497Z,100974.42
2018-09-03T18:59:19.749Z,100977.81
2018-09-03T19:01:47.993Z,100979.70
2018-09-03T19:04:16.273Z,100982.11
2018-09-03T19:06:44.497Z,100982.34
2018-09-03T19:09:12.735Z,100978.00
2018-09-03T19:11:40.974Z,100976.39
2018-09-03T19:14:09.565Z,100978.76
2018-09-03T19:16:37.769Z,100973.09
2018-09-03T19:19:06.034Z,100972.66
2018-09-03T19:21:34.345Z,100971.11
2018-09-03T19:24:02.546Z,100970.88
2018-09-03T19:26:30.766Z,100973.30
2018-09-03T19:28:58.974Z,100974.69
2018-09-03T19:31:27.297Z,100971.58
2018-09-03T19:33:55.525Z,100972.99
2018-09-03T19:36:23.763Z,100960.94
2018-09-03T19:38:53.070Z,100965.86
2018-09-03T19:41:21.306Z,100968.01
2018-09-03T19:43:49.520Z,100970.31
2018-09-03T19:46:17.750Z,100971.48
2018-09-03T19:48:45.973Z,100971.41
2018-09-03T19:51:14.177Z,100966.60
2018-09-03T19:53:43.426Z,100966.08
2018-09-03T19:56:11.647Z,100966.73
2018-09-03T19:58:39.877Z,100964.50
2018-09-03T20:01:08.084Z,100964.11
2018-09-03T20:03:37.197Z,100970.70
2018-09-03T20:06:05.500Z,100968.86
2018-09-03T20:08:34.971Z,100969.27
2018-09-03T20:11:03.214Z,100975.10
2018-09-03T20:13:31.826Z,100973.08
2018-09-03T20:16:00.046Z,100965.21
2018-09-03T20:18:28.389Z,100965.53
2018-09-03T20:20:56.678Z,100963.88
2018-09-03T20:23:24.969Z,100965.08
2018-09-03T20:25:55.262Z,100963.91
2018-09-03T20:28:24.945Z,100963.50
2018-09-03T20:30:53.202Z,100955.20
2018-09-03T20:33:21.720Z,100955.11
2018-09-03T20:35:50.018Z,100953.89
2018-09-03T20:38:19.766Z,100959.27
2018-09-03T20:40:48.083Z,100949.52
2018-09-03T20:43:16.372Z,100953.38
2018-09-03T20:45:44.689Z,100951.92
2018-09-03T20:48:13.091Z,100955.75
2018-09-03T20:50:41.372Z,100949.70
2018-09-03T20:53:09.595Z,100952.97
2018-09-03T20:55:37.934Z,100952.20
2018-09-03T20:58:06.354Z,100951.44
2018-09-03T21:00:34.611Z,100956.02
2018-09-03T21:03:02.881Z,100953.27
2018-09-03T21:05:31.150Z,100954.39
2018-09-03T21:07:59.362Z,100949.08
2018-09-03T21:10:27.582Z,100950.19
2018-09-03T21:12:55.830Z,100952.66
2018-09-03T21:15:24.160Z,100956.60
2018-09-03T21:17:53.499Z,100961.73
2018-09-03T21:20:21.741Z,100954.28
2018-09-03T21:22:49.959Z,100957.81
2018-09-03T21:25:18.262Z,100952.76
2018-09-03T21:27:46.478Z,100959.55
2018-09-03T21:30:14.685Z,100948.80
2018-09-03T21:32:42.930Z,100956.43
2018-09-03T21:35:11.257Z,100957.33
2018-09-03T21:37:39.583Z,100961.84
2018-09-03T21:40:08.073Z,100954.80
2018-09-03T21:42:36.350Z,100958.23
2018-09-03T21:45:04.653Z,100952.09
2018-09-03T21:47:32.882Z,100951.64
2018-09-03T21:50:01.089Z,100959.09
2018-09-03T21:52:29.346Z,100959.62
2018-09-03T21:54:57.583Z,100956.02
2018-09-03T21:57:25.806Z,100957.98
2018-09-03T21:59:54.034Z,100956.05
2018-09-03T22:02:22.627Z,100957.67
2018-09-03T22:04:50.860Z,100956.16
2018-09-03T22:07:19.130Z,100956.98
2018-09-03T22:09:47.365Z,100947.69
2018-09-03T22:12:15.642Z,100952.48
2018-09-03T22:14:43.855Z,100951.20
2018-09-03T22:17:12.078Z,100957.02
2018-09-03T22:19:40.311Z,100959.97
2018-09-03T22:22:08.688Z,100951.02
2018-09-03T22:24:36.933Z,100946.80
2018-09-03T22:27:06.610Z,100949.56
2018-09-03T22:29:34.857Z,100953.97
2018-09-03T22:32:03.119Z,100953.97
2018-09-03T22:34:31.526Z,100951.44
2018-09-03T22:36:59.754Z,100953.86
2018-09-03T22:39:27.978Z,100956.33
2018-09-03T22:41:56.207Z,100946.38
2018-09-03T22:44:24.470Z,100950.78
2018-09-03T22:46:52.761Z,100948.11
2018-09-03T22:49:20.994Z,100948.70
2018-09-03T22:51:49.266Z,100946.78
2018-09-03T22:54:17.488Z,100946.83
2018-09-03T22:56:45.693Z,100946.61
2018-09-03T22:59:14.914Z,100948.66
2018-09-03T23:01:43.210Z,100953.20
2018-09-03T23:04:11.438Z,100946.63
2018-09-03T23:06:39.696Z,100948.25
2018-09-03T23:09:08.329Z,100943.53
2018-09-03T23:11:36.593Z,100941.34
2018-09-03T23:14:05.525Z,100945.02
2018-09-03T23:16:33.738Z,100943.22
2018-09-03T23:19:01.949Z,100948.38
2018-09-03T23:21:30.189Z,100952.40
2018-09-03T23:23:58.405Z,100946.34
2018-09-03T23:26:26.878Z,100951.12
2018-09-03T23:28:55.156Z,100946.44
2018-09-03T23:31:23.430Z,100941.27
2018-09-03T23:33:51.708Z,100945.43
2018-09-03T23:36:19.937Z,100935.28
2018-09-03T23:38:48.173Z,100934.31
2018-09-03T23:41:16.406Z,100938.44
2018-09-03T23:43:44.617Z,100930.95
2018-09-03T23:46:12.825Z,100930.57
2018-09-03T23:48:41.077Z,100938.63
2018-09-03T23:51:09.355Z,100940.75
2018-09-03T23:53:37.573Z,100931.94
2018-09-03T23:56:05.780Z,100929.35
2018-09-03T23:58:34.034Z,100928.66
